createdAt,value
2018-03-12T00:01:23.902Z,7.23
2018-03-12T00:03:52.050Z,7.07
2018-03-12T00:06:19.589Z,6.23
2018-03-12T00:08:47.080Z,6.50
2018-03-12T00:11:14.592Z,5.97
2018-03-12T00:13:42.080Z,5.97
2018-03-12T00:16:09.522Z,6.03
2018-03-12T00:21:10.823Z,6.17
2018-03-12T00:23:38.352Z,6.10
2018-03-12T00:26:05.895Z,5.83
2018-03-12T00:28:33.385Z,5.63
2018-03-12T00:31:00.961Z,5.77
2018-03-12T00:33:28.563Z,5.47
2018-03-12T00:35:56.025Z,6.03
2018-03-12T00:38:23.635Z,5.83
2018-03-12T00:40:51.108Z,5.37
2018-03-12T00:43:18.635Z,6.63
2018-03-12T00:45:46.515Z,6.47
2018-03-12T00:48:13.980Z,7.10
2018-03-12T00:50:41.490Z,6.50
2018-03-12T00:53:09.019Z,6.50
2018-03-12T00:55:36.499Z,6.70
2018-03-12T00:58:04.057Z,6.83
2018-03-12T01:00:31.793Z,6.63
2018-03-12T01:02:59.259Z,7.27
2018-03-12T01:05:26.744Z,7.00
2018-03-12T01:07:55.636Z,7.67
2018-03-12T01:10:23.163Z,7.00
2018-03-12T01:12:50.760Z,6.80
2018-03-12T01:15:18.684Z,7.40
2018-03-12T01:17:46.214Z,7.80
2018-03-12T01:20:13.688Z,7.03
2018-03-12T01:22:41.154Z,7.20
2018-03-12T01:25:08.649Z,6.93
2018-03-12T01:27:36.087Z,6.33
2018-03-12T01:30:05.274Z,6.27
2018-03-12T01:32:33.839Z,6.40
2018-03-12T01:35:02.922Z,6.77
2018-03-12T01:37:30.435Z,7.30
2018-03-12T01:39:57.891Z,7.00
2018-03-12T01:42:26.099Z,6.60
2018-03-12T01:44:53.725Z,6.47
2018-03-12T01:47:21.184Z,6.63
2018-03-12T01:49:48.683Z,6.53
2018-03-12T01:52:16.303Z,6.60
2018-03-12T01:54:43.785Z,7.23
2018-03-12T01:57:11.260Z,7.00
2018-03-12T01:59:38.719Z,6.30
2018-03-12T02:02:06.292Z,7.03
2018-03-12T02:04:33.756Z,6.00
2018-03-12T02:07:01.223Z,6.70
2018-03-12T02:09:28.724Z,7.00
2018-03-12T02:11:56.208Z,6.57
2018-03-12T02:14:23.688Z,6.97
2018-03-12T02:16:51.150Z,6.13
2018-03-12T02:19:18.657Z,6.33
2018-03-12T02:21:46.122Z,7.03
2018-03-12T02:24:13.603Z,6.07
2018-03-12T02:26:41.059Z,6.87
2018-03-12T02:29:08.513Z,6.17
2018-03-12T02:31:35.996Z,6.07
2018-03-12T02:34:03.460Z,6.97
2018-03-12T02:36:30.932Z,6.43
2018-03-12T02:38:58.424Z,6.83
2018-03-12T02:41:25.898Z,6.30
2018-03-12T02:43:53.367Z,6.70
2018-03-12T02:46:20.857Z,6.37
2018-03-12T02:48:48.320Z,7.07
2018-03-12T02:51:15.950Z,5.87
2018-03-12T02:53:43.448Z,7.10
2018-03-12T02:56:10.912Z,6.50
2018-03-12T02:58:38.388Z,6.40
2018-03-12T03:01:05.878Z,7.00
2018-03-12T03:03:33.336Z,6.57
2018-03-12T03:06:00.879Z,6.73
2018-03-12T03:08:28.358Z,6.60
2018-03-12T03:10:55.836Z,6.37
2018-03-12T03:13:23.306Z,7.00
2018-03-12T03:15:50.783Z,7.40
2018-03-12T03:18:18.270Z,6.90
2018-03-12T03:20:45.758Z,7.70
2018-03-12T03:23:13.203Z,6.57
2018-03-12T03:25:40.662Z,7.30
2018-03-12T03:28:08.172Z,6.57
2018-03-12T03:30:37.489Z,6.87
2018-03-12T03:33:04.955Z,5.97
2018-03-12T03:35:32.407Z,6.43
2018-03-12T03:37:59.949Z,6.47
2018-03-12T03:40:27.468Z,6.57
2018-03-12T03:42:54.961Z,7.00
2018-03-12T03:45:22.452Z,6.23
2018-03-12T03:47:49.908Z,6.77
2018-03-12T03:50:17.413Z,6.40
2018-03-12T03:52:44.919Z,6.87
2018-03-12T03:55:12.424Z,6.60
2018-03-12T03:57:39.895Z,6.97
2018-03-12T04:00:07.433Z,7.03
2018-03-12T04:02:34.879Z,7.50
2018-03-12T04:05:02.369Z,6.57
2018-03-12T04:07:29.833Z,6.47
2018-03-12T04:09:57.307Z,7.83
2018-03-12T04:12:25.031Z,7.17
2018-03-12T04:14:52.507Z,6.50
2018-03-12T04:17:19.971Z,7.10
2018-03-12T04:19:47.423Z,6.70
2018-03-12T04:22:15.016Z,6.37
2018-03-12T04:24:43.034Z,6.70
2018-03-12T04:27:10.550Z,7.90
2018-03-12T04:29:38.010Z,6.90
2018-03-12T04:32:05.502Z,6.93
2018-03-12T04:34:32.989Z,7.63
2018-03-12T04:37:00.443Z,6.40
2018-03-12T04:39:27.923Z,7.80
2018-03-12T04:41:55.415Z,7.50
2018-03-12T04:44:22.877Z,6.60
2018-03-12T04:46:50.355Z,6.90
2018-03-12T04:49:17.839Z,6.63
2018-03-12T04:51:45.367Z,7.07
2018-03-12T04:54:12.851Z,6.97
2018-03-12T04:56:40.310Z,6.30
2018-03-12T04:59:07.819Z,7.07
2018-03-12T05:01:35.280Z,7.93
2018-03-12T05:04:02.771Z,6.73
2018-03-12T05:06:30.244Z,6.07
2018-03-12T05:08:57.711Z,6.60
2018-03-12T05:11:25.171Z,7.17
2018-03-12T05:13:52.624Z,6.80
2018-03-12T05:16:20.087Z,7.20
2018-03-12T05:18:47.535Z,6.80
2018-03-12T05:21:15.273Z,6.90
2018-03-12T05:23:42.771Z,6.97
2018-03-12T05:26:10.271Z,7.07
2018-03-12T05:28:37.980Z,6.10
2018-03-12T05:31:05.472Z,6.70
2018-03-12T05:33:32.966Z,6.17
2018-03-12T05:36:00.433Z,6.30
2018-03-12T05:38:28.034Z,5.83
2018-03-12T05:40:55.511Z,6.50
2018-03-12T05:43:22.995Z,5.60
2018-03-12T05:45:50.502Z,6.30
2018-03-12T05:48:18.109Z,5.87
2018-03-12T05:50:45.565Z,6.03
2018-03-12T05:53:13.058Z,5.40
2018-03-12T05:55:40.510Z,6.00
2018-03-12T05:58:08.013Z,5.90
2018-03-12T06:00:35.499Z,5.67
2018-03-12T06:03:02.955Z,5.60
2018-03-12T06:05:30.439Z,5.53
2018-03-12T06:07:57.904Z,5.30
2018-03-12T06:10:25.440Z,5.13
2018-03-12T06:12:52.924Z,5.10
2018-03-12T06:15:20.375Z,5.80
2018-03-12T06:17:47.874Z,4.73
2018-03-12T06:20:15.474Z,5.53
2018-03-12T06:22:42.983Z,5.20
2018-03-12T06:25:10.487Z,6.00
2018-03-12T06:27:37.973Z,5.47
2018-03-12T06:30:05.459Z,5.33
2018-03-12T06:32:33.031Z,5.13
2018-03-12T06:35:00.516Z,4.40
2018-03-12T06:37:28.033Z,5.60
2018-03-12T06:39:55.504Z,5.40
2018-03-12T06:42:23.612Z,4.70
2018-03-12T06:44:51.969Z,5.93
2018-03-12T06:47:19.431Z,5.47
2018-03-12T06:49:46.919Z,5.30
2018-03-12T06:52:14.368Z,5.37
2018-03-12T06:54:41.958Z,5.30
2018-03-12T06:57:09.417Z,5.60
2018-03-12T06:59:36.896Z,5.30
2018-03-12T07:02:04.408Z,4.83
2018-03-12T07:04:31.896Z,4.67
2018-03-12T07:06:59.378Z,4.67
2018-03-12T07:09:26.856Z,4.10
2018-03-12T07:11:54.357Z,4.80
2018-03-12T07:14:21.866Z,4.07
2018-03-12T07:16:49.318Z,4.47
2018-03-12T07:19:16.763Z,4.50
2018-03-12T07:21:44.230Z,4.83
2018-03-12T07:24:11.699Z,4.00
2018-03-12T07:26:39.195Z,4.13
2018-03-12T07:29:06.710Z,4.20
2018-03-12T07:31:34.153Z,4.23
2018-03-12T07:34:02.650Z,4.73
2018-03-12T07:36:30.131Z,3.47
2018-03-12T07:38:57.591Z,4.27
2018-03-12T07:41:25.115Z,4.30
2018-03-12T07:43:53.220Z,3.40
2018-03-12T07:46:20.699Z,3.90
2018-03-12T07:48:48.275Z,4.30
2018-03-12T07:51:15.893Z,3.50
2018-03-12T07:53:43.358Z,3.40
2018-03-12T07:56:10.880Z,3.83
2018-03-12T07:58:38.373Z,3.87
2018-03-12T08:01:05.855Z,3.20
2018-03-12T08:03:33.337Z,3.77
2018-03-12T08:06:00.808Z,4.60
2018-03-12T08:08:28.310Z,4.63
2018-03-12T08:10:55.844Z,6.00
2018-03-12T08:13:23.318Z,5.37
2018-03-12T08:15:50.811Z,3.80
2018-03-12T08:18:18.297Z,3.93
2018-03-12T08:20:45.758Z,6.20
2018-03-12T08:23:13.297Z,6.30
2018-03-12T08:25:40.764Z,6.13
2018-03-12T08:28:08.318Z,7.70
2018-03-12T08:30:35.864Z,8.00
2018-03-12T08:33:03.355Z,8.27
2018-03-12T08:35:30.835Z,10.00
2018-03-12T08:37:58.338Z,8.60
2018-03-12T08:40:25.812Z,9.57
2018-03-12T08:42:53.311Z,9.33
2018-03-12T08:45:20.846Z,9.77
2018-03-12T08:47:48.337Z,9.07
2018-03-12T08:50:15.991Z,8.47
2018-03-12T08:52:43.481Z,10.00
2018-03-12T08:55:10.966Z,9.80
2018-03-12T08:57:38.446Z,9.97
2018-03-12T09:00:05.962Z,8.80
2018-03-12T09:02:33.620Z,9.20
2018-03-12T09:05:01.091Z,9.10
2018-03-12T09:07:28.563Z,8.83
2018-03-12T09:09:56.066Z,9.13
2018-03-12T09:12:23.788Z,8.70
2018-03-12T09:14:51.285Z,8.70
2018-03-12T09:17:18.836Z,8.93
2018-03-12T09:19:46.381Z,7.70
2018-03-12T09:22:13.963Z,8.40
2018-03-12T09:24:41.577Z,5.57
2018-03-12T09:27:09.111Z,7.60
2018-03-12T09:29:36.632Z,6.70
2018-03-12T09:32:05.273Z,6.30
2018-03-12T09:34:34.111Z,6.67
2018-03-12T09:37:09.072Z,7.30
2018-03-12T09:39:36.524Z,5.67
2018-03-12T09:42:03.999Z,5.67
2018-03-12T09:44:31.476Z,6.10
2018-03-12T09:46:59.348Z,5.23
2018-03-12T09:49:26.817Z,5.10
2018-03-12T09:51:54.314Z,4.17
2018-03-12T09:54:21.779Z,4.07
2018-03-12T09:56:49.259Z,3.10
2018-03-12T09:59:16.772Z,2.93
2018-03-12T10:01:44.231Z,2.10
2018-03-12T10:04:11.959Z,2.43
2018-03-12T10:06:39.477Z,2.67
2018-03-12T10:09:06.996Z,2.70
2018-03-12T10:11:34.683Z,2.97
2018-03-12T10:14:02.191Z,3.57
2018-03-12T10:16:29.693Z,2.60
2018-03-12T10:18:57.176Z,2.50
2018-03-12T10:21:26.087Z,2.70
2018-03-12T10:23:53.579Z,3.00
2018-03-12T10:26:21.329Z,2.40
2018-03-12T10:28:48.936Z,2.80
2018-03-12T10:31:16.586Z,2.50
2018-03-12T10:33:44.064Z,2.83
2018-03-12T10:36:11.566Z,2.60
2018-03-12T10:38:39.061Z,3.33
2018-03-12T10:41:08.899Z,2.87
2018-03-12T10:43:36.405Z,2.50
2018-03-12T10:46:03.909Z,2.70
2018-03-12T10:48:31.775Z,2.50
2018-03-12T10:51:00.705Z,2.17
2018-03-12T10:53:28.290Z,1.80
2018-03-12T10:56:15.151Z,1.67
2018-03-12T10:58:42.689Z,1.80
2018-03-12T11:01:10.245Z,1.90
2018-03-12T11:03:43.318Z,2.27
2018-03-12T11:06:16.364Z,2.10
2018-03-12T11:21:42.231Z,1.80
2018-03-12T11:24:09.753Z,1.67
2018-03-12T11:26:37.677Z,1.80
2018-03-12T11:29:05.212Z,1.70
2018-03-12T11:31:32.743Z,1.40
2018-03-12T11:34:00.277Z,1.30
2018-03-12T11:36:27.857Z,1.80
2018-03-12T11:38:55.307Z,1.33
2018-03-12T11:41:22.768Z,1.57
2018-03-12T11:43:50.375Z,1.40
2018-03-12T11:46:18.817Z,1.47
2018-03-12T11:48:47.309Z,1.47
2018-03-12T11:51:18.225Z,1.10
2018-03-12T11:53:45.948Z,1.40
2018-03-12T11:56:13.489Z,1.27
2018-03-12T11:58:40.985Z,1.40
2018-03-12T12:01:08.485Z,1.17
2018-03-12T12:03:36.041Z,0.93
2018-03-12T12:06:03.613Z,1.30
2018-03-12T12:08:35.068Z,0.97
2018-03-12T12:11:02.594Z,1.23
2018-03-12T12:13:30.095Z,1.17
2018-03-12T12:15:57.594Z,1.03
2018-03-12T12:18:25.733Z,1.13
2018-03-12T12:20:53.243Z,1.00
2018-03-12T12:23:20.699Z,1.20
2018-03-12T12:25:48.188Z,1.23
2018-03-12T12:28:15.928Z,1.27
2018-03-12T12:30:46.185Z,1.10
2018-03-12T12:33:13.832Z,1.37
2018-03-12T12:35:41.541Z,0.90
2018-03-12T12:38:09.038Z,1.10
2018-03-12T12:40:36.980Z,1.10
2018-03-12T12:43:04.568Z,1.53
2018-03-12T12:45:32.034Z,1.10
2018-03-12T12:47:59.509Z,1.33
2018-03-12T12:50:27.093Z,1.40
2018-03-12T12:52:54.906Z,1.53
2018-03-12T12:55:22.358Z,1.07
2018-03-12T12:57:49.864Z,1.23
2018-03-12T13:00:17.312Z,1.27
2018-03-12T13:02:44.831Z,1.30
2018-03-12T13:05:12.295Z,1.10
2018-03-12T13:07:39.809Z,0.90
2018-03-12T13:10:07.315Z,0.90
2018-03-12T13:12:34.811Z,1.43
2018-03-12T13:15:02.330Z,1.40
2018-03-12T13:17:30.365Z,0.90
2018-03-12T13:20:00.100Z,1.10
2018-03-12T13:22:32.579Z,1.40
2018-03-12T13:25:00.364Z,1.30
2018-03-12T13:27:27.824Z,1.00
2018-03-12T13:29:55.578Z,1.07
2018-03-12T13:32:23.080Z,1.20
2018-03-12T13:34:50.622Z,1.30
2018-03-12T13:37:18.130Z,0.80
2018-03-12T13:39:46.357Z,1.23
2018-03-12T13:42:13.841Z,1.80
2018-03-12T13:44:41.364Z,1.43
2018-03-12T13:47:08.822Z,1.50
2018-03-12T13:49:36.312Z,1.83
2018-03-12T13:52:03.809Z,1.03
2018-03-12T13:54:31.288Z,1.07
2018-03-12T13:56:59.230Z,1.57
2018-03-12T13:59:26.756Z,1.30
2018-03-12T14:01:54.256Z,0.97
2018-03-12T14:04:21.796Z,1.13
2018-03-12T14:06:49.591Z,0.80
2018-03-12T14:09:19.085Z,0.90
2018-03-12T14:11:46.639Z,1.00
2018-03-12T14:14:14.171Z,1.07
2018-03-12T14:16:41.710Z,1.50
2018-03-12T14:19:09.866Z,1.67
2018-03-12T14:21:37.398Z,1.27
2018-03-12T14:24:04.978Z,1.17
2018-03-12T14:26:33.013Z,1.60
2018-03-12T14:29:00.531Z,1.60
2018-03-12T14:31:28.865Z,1.40
2018-03-12T14:33:56.380Z,0.83
2018-03-12T14:36:24.521Z,0.67
2018-03-12T14:38:53.020Z,1.23
2018-03-12T14:41:20.617Z,1.03
2018-03-12T14:43:48.104Z,0.93
2018-03-12T14:46:15.699Z,1.27
2018-03-12T14:48:43.338Z,0.97
2018-03-12T14:51:10.892Z,1.30
2018-03-12T14:53:38.463Z,1.30
2018-03-12T14:56:05.956Z,0.90
2018-03-12T14:58:34.405Z,0.83
2018-03-12T15:01:01.896Z,1.20
2018-03-12T15:03:29.460Z,1.30
2018-03-12T15:05:56.932Z,2.10
2018-03-12T15:08:24.395Z,1.60
2018-03-12T15:10:52.076Z,1.80
2018-03-12T15:13:19.818Z,2.00
2018-03-12T15:15:47.772Z,2.00
2018-03-12T15:18:15.247Z,1.70
2018-03-12T15:20:42.748Z,2.00
2018-03-12T15:23:10.526Z,1.73
2018-03-12T15:25:38.019Z,2.70
2018-03-12T15:28:05.516Z,2.60
2018-03-12T15:30:33.327Z,2.53
2018-03-12T15:33:00.772Z,3.03
2018-03-12T15:35:28.233Z,3.30
2018-03-12T15:37:55.736Z,2.93
2018-03-12T15:40:23.880Z,2.70
2018-03-12T15:42:51.378Z,3.53
2018-03-12T15:45:18.999Z,3.33
2018-03-12T15:47:46.606Z,2.73
2018-03-12T15:50:14.294Z,2.60
2018-03-12T15:52:41.806Z,2.10
2018-03-12T15:55:09.513Z,4.00
2018-03-12T15:57:37.058Z,3.80
2018-03-12T16:00:04.605Z,4.03
2018-03-12T16:02:34.154Z,3.50
2018-03-12T16:05:01.671Z,3.07
2018-03-12T16:07:29.172Z,4.90
2018-03-12T16:09:56.697Z,5.03
2018-03-12T16:12:24.539Z,5.70
2018-03-12T16:14:52.105Z,3.17
2018-03-12T16:17:19.730Z,2.80
2018-03-12T16:19:50.107Z,2.77
2018-03-12T16:22:17.706Z,2.73
2018-03-12T16:24:45.619Z,2.40
2018-03-12T16:27:16.581Z,1.77
2018-03-12T16:29:44.120Z,1.60
2018-03-12T16:32:12.499Z,1.70
2018-03-12T16:34:40.090Z,1.70
2018-03-12T16:37:07.616Z,1.40
2018-03-12T16:39:35.176Z,1.60
2018-03-12T16:42:03.021Z,1.80
2018-03-12T16:44:30.918Z,1.40
2018-03-12T16:46:59.875Z,1.80
2018-03-12T16:49:27.334Z,1.90
2018-03-12T16:51:57.892Z,2.10
2018-03-12T16:54:33.291Z,2.47
2018-03-12T16:56:56.650Z,2.00
2018-03-12T16:59:24.478Z,1.63
2018-03-12T17:01:52.061Z,1.70
2018-03-12T17:04:19.562Z,1.93
2018-03-12T17:06:47.668Z,2.17
2018-03-12T17:09:18.998Z,2.13
2018-03-12T17:11:46.503Z,1.97
2018-03-12T17:14:16.869Z,2.10
2018-03-12T17:16:45.005Z,2.17
2018-03-12T17:19:12.595Z,1.93
2018-03-12T17:21:40.080Z,1.93
2018-03-12T17:24:08.268Z,1.97
2018-03-12T17:26:35.797Z,1.80
2018-03-12T17:29:03.582Z,1.93
2018-03-12T17:31:31.507Z,2.10
2018-03-12T17:36:31.481Z,2.23
2018-03-12T17:38:59.124Z,2.63
2018-03-12T17:41:26.597Z,2.30
2018-03-12T17:43:54.146Z,2.27
2018-03-12T17:46:21.700Z,2.27
2018-03-12T17:48:49.234Z,2.50
2018-03-12T17:51:16.766Z,1.90
2018-03-12T17:53:44.449Z,2.40
2018-03-12T17:56:12.034Z,3.20
2018-03-12T17:58:39.659Z,2.73
2018-03-12T18:01:07.193Z,2.97
2018-03-12T18:03:34.696Z,3.40
2018-03-12T18:06:03.334Z,3.20
2018-03-12T18:08:31.267Z,3.10
2018-03-12T18:10:59.155Z,3.57
2018-03-12T18:13:26.633Z,4.20
2018-03-12T18:15:54.641Z,3.60
2018-03-12T18:18:22.887Z,4.20
2018-03-12T18:20:50.515Z,3.73
2018-03-12T18:23:18.177Z,3.77
2018-03-12T18:25:46.583Z,3.90
2018-03-12T18:28:17.720Z,3.80
2018-03-12T18:30:45.454Z,4.13
2018-03-12T18:33:12.951Z,3.60
2018-03-12T18:35:41.434Z,6.60
2018-03-12T18:38:10.535Z,5.03
2018-03-12T18:40:38.049Z,4.30
2018-03-12T18:43:05.514Z,4.60
2018-03-12T18:45:33.096Z,5.63
2018-03-12T18:48:00.595Z,5.50
2018-03-12T18:50:28.107Z,5.47
2018-03-12T18:52:55.655Z,4.87
2018-03-12T18:55:23.177Z,4.67
2018-03-12T18:57:50.762Z,3.87
2018-03-12T19:00:18.269Z,4.07
2018-03-12T19:02:45.914Z,4.07
2018-03-12T19:05:13.409Z,3.80
2018-03-12T19:07:40.905Z,4.20
2018-03-12T19:10:10.311Z,4.43
2018-03-12T19:12:37.790Z,3.47
2018-03-12T19:15:05.603Z,3.87
2018-03-12T19:17:33.112Z,4.37
2018-03-12T19:20:00.594Z,4.20
2018-03-12T19:22:28.063Z,3.70
2018-03-12T19:24:55.543Z,4.60
2018-03-12T19:27:23.073Z,4.00
2018-03-12T19:29:50.579Z,5.47
2018-03-12T19:32:21.157Z,5.10
2018-03-12T19:34:48.628Z,4.97
2018-03-12T19:37:16.111Z,4.10
2018-03-12T19:39:43.624Z,5.63
2018-03-12T19:42:11.193Z,5.67
2018-03-12T19:44:38.722Z,5.93
2018-03-12T19:47:06.198Z,4.70
2018-03-12T19:49:33.657Z,4.63
2018-03-12T19:52:01.264Z,4.23
2018-03-12T19:54:28.783Z,3.70
2018-03-12T19:56:56.365Z,3.33
2018-03-12T19:59:23.934Z,3.50
2018-03-12T20:01:51.465Z,2.93
2018-03-12T20:04:18.943Z,2.50
2018-03-12T20:06:46.509Z,2.53
2018-03-12T20:09:22.823Z,3.40
2018-03-12T20:11:50.411Z,3.20
2018-03-12T20:14:21.004Z,2.73
2018-03-12T20:16:48.525Z,3.40
2018-03-12T20:19:16.231Z,3.13
2018-03-12T20:21:43.688Z,3.10
2018-03-12T20:24:11.179Z,3.00
2018-03-12T20:26:38.792Z,3.30
2018-03-12T20:29:06.261Z,2.87
2018-03-12T20:31:33.782Z,3.07
2018-03-12T20:34:01.285Z,3.13
2018-03-12T20:36:29.590Z,3.23
2018-03-12T20:38:57.123Z,3.83
2018-03-12T20:41:24.845Z,3.33
2018-03-12T20:43:52.358Z,4.27
2018-03-12T20:46:22.325Z,4.83
2018-03-12T20:48:50.118Z,4.13
2018-03-12T20:51:17.958Z,5.03
2018-03-12T20:53:45.668Z,5.33
2018-03-12T20:56:13.179Z,5.33
2018-03-12T20:58:40.681Z,5.20
2018-03-12T21:01:08.165Z,4.77
2018-03-12T21:03:35.668Z,4.57
2018-03-12T21:06:03.489Z,4.70
2018-03-12T21:08:31.387Z,5.30
2018-03-12T21:10:58.909Z,5.37
2018-03-12T21:13:26.387Z,4.80
2018-03-12T21:15:53.946Z,5.30
2018-03-12T21:18:21.552Z,5.47
2018-03-12T21:20:49.048Z,5.53
2018-03-12T21:23:17.223Z,4.90
2018-03-12T21:25:44.701Z,4.30
2018-03-12T21:28:12.266Z,4.77
2018-03-12T21:30:40.544Z,3.93
2018-03-12T21:33:08.097Z,4.40
2018-03-12T21:35:35.642Z,4.80
2018-03-12T21:38:03.227Z,4.07
2018-03-12T21:40:31.017Z,3.50
2018-03-12T21:42:58.588Z,3.73
2018-03-12T21:45:26.196Z,4.20
2018-03-12T21:47:53.710Z,3.77
2018-03-12T21:50:22.897Z,4.60
2018-03-12T21:52:50.416Z,4.40
2018-03-12T21:55:22.819Z,4.80
2018-03-12T21:57:50.403Z,4.50
2018-03-12T22:00:17.913Z,5.50
2018-03-12T22:02:45.421Z,4.40
2018-03-12T22:05:12.907Z,4.77
2018-03-12T22:07:40.397Z,4.33
2018-03-12T22:10:07.906Z,5.50
2018-03-12T22:12:35.392Z,4.60
2018-03-12T22:15:02.911Z,4.70
2018-03-12T22:17:30.399Z,5.17
2018-03-12T22:19:57.862Z,4.80
2018-03-12T22:22:25.327Z,4.90
2018-03-12T22:24:52.810Z,5.17
2018-03-12T22:27:20.330Z,4.80
2018-03-12T22:29:47.835Z,5.07
2018-03-12T22:32:15.308Z,5.10
2018-03-12T22:34:42.794Z,4.87
2018-03-12T22:37:10.384Z,5.33
2018-03-12T22:39:37.835Z,5.10
2018-03-12T22:42:05.670Z,5.10
2018-03-12T22:44:33.226Z,5.50
2018-03-12T22:47:00.738Z,5.93
2018-03-12T22:49:28.296Z,5.43
2018-03-12T22:51:55.778Z,5.07
2018-03-12T22:54:23.262Z,4.60
2018-03-12T22:56:52.829Z,4.30
2018-03-12T22:59:20.385Z,5.00
2018-03-12T23:01:47.885Z,4.00
2018-03-12T23:04:15.589Z,4.33
2018-03-12T23:06:44.020Z,4.47
2018-03-12T23:09:12.566Z,4.67
2018-03-12T23:11:40.166Z,4.20
2018-03-12T23:14:07.902Z,4.30
2018-03-12T23:16:35.371Z,3.40
2018-03-12T23:19:02.886Z,2.83
2018-03-12T23:21:30.476Z,2.20
2018-03-12T23:23:58.047Z,1.60
2018-03-12T23:26:25.675Z,1.90
2018-03-12T23:28:53.241Z,1.70
2018-03-12T23:31:21.727Z,2.03
2018-03-12T23:33:49.186Z,1.70
2018-03-12T23:36:16.773Z,1.50
2018-03-12T23:38:44.602Z,1.53
2018-03-12T23:41:12.175Z,1.47
2018-03-12T23:43:40.053Z,1.50
2018-03-12T23:46:07.549Z,1.83
2018-03-12T23:48:35.038Z,1.60
2018-03-12T23:51:02.519Z,1.53
2018-03-12T23:53:30.019Z,1.83
2018-03-12T23:55:57.545Z,2.07
2018-03-12T23:58:25.014Z,1.67
